sensor_id;sensor_type;location;lat;lon;timestamp;temperature;humidity
53904;DHT22;39812;52.430;16.936;2023-02-28T00:00:49;-2.80;99.90
53904;DHT22;39812;52.430;16.936;2023-02-28T00:03:15;-2.80;99.90
53904;DHT22;39812;52.430;16.936;2023-02-28T00:05:41;-2.70;99.90
53904;DHT22;39812;52.430;16.936;2023-02-28T00:08:07;-2.60;99.90
53904;DHT22;39812;52.430;16.936;2023-02-28T00:10:33;-2.70;99.90
53904;DHT22;39812;52.430;16.936;2023-02-28T00:13:04;-2.80;99.90
53904;DHT22;39812;52.430;16.936;2023-02-28T00:15:31;-2.80;99.90
53904;DHT22;39812;52.430;16.936;2023-02-28T00:17:57;-2.90;99.90
53904;DHT22;39812;52.430;16.936;2023-02-28T00:20:23;-2.90;99.90
53904;DHT22;39812;52.430;16.936;2023-02-28T00:22:51;-2.90;99.90
53904;DHT22;39812;52.430;16.936;2023-02-28T00:25:22;-2.80;99.90
53904;DHT22;39812;52.430;16.936;2023-02-28T00:27:49;-2.90;99.90
53904;DHT22;39812;52.430;16.936;2023-02-28T00:30:18;-3.00;99.90
53904;DHT22;39812;52.430;16.936;2023-02-28T00:32:44;-3.10;99.90
53904;DHT22;39812;52.430;16.936;2023-02-28T00:35:10;-3.10;99.90
53904;DHT22;39812;52.430;16.936;2023-02-28T00:37:36;-3.20;99.90
53904;DHT22;39812;52.430;16.936;2023-02-28T00:40:02;-3.00;99.90
53904;DHT22;39812;52.430;16.936;2023-02-28T00:42:30;-3.10;99.90
53904;DHT22;39812;52.430;16.936;2023-02-28T00:44:56;-3.00;99.90
53904;DHT22;39812;52.430;16.936;2023-02-28T00:47:21;-2.80;99.90
53904;DHT22;39812;52.430;16.936;2023-02-28T00:49:47;-2.70;99.90
53904;DHT22;39812;52.430;16.936;2023-02-28T00:52:13;-2.50;99.90
53904;DHT22;39812;52.430;16.936;2023-02-28T00:54:38;-2.50;99.90
53904;DHT22;39812;52.430;16.936;2023-02-28T00:57:04;-2.50;99.90
53904;DHT22;39812;52.430;16.936;2023-02-28T00:59:30;-2.50;99.90
53904;DHT22;39812;52.430;16.936;2023-02-28T01:01:55;-2.50;99.90
53904;DHT22;39812;52.430;16.936;2023-02-28T01:04:21;-2.60;99.90
53904;DHT22;39812;52.430;16.936;2023-02-28T01:06:47;-2.60;99.90
53904;DHT22;39812;52.430;16.936;2023-02-28T01:09:13;-2.60;99.90
53904;DHT22;39812;52.430;16.936;2023-02-28T01:11:38;-2.60;99.90
53904;DHT22;39812;52.430;16.936;2023-02-28T01:14:06;-2.60;99.90
53904;DHT22;39812;52.430;16.936;2023-02-28T01:16:32;-2.50;99.90
53904;DHT22;39812;52.430;16.936;2023-02-28T01:18:57;-2.50;99.90
53904;DHT22;39812;52.430;16.936;2023-02-28T01:21:23;-2.40;99.90
53904;DHT22;39812;52.430;16.936;2023-02-28T01:23:50;-2.40;99.90
53904;DHT22;39812;52.430;16.936;2023-02-28T01:26:19;-2.50;99.90
53904;DHT22;39812;52.430;16.936;2023-02-28T01:28:45;-2.40;99.90
53904;DHT22;39812;52.430;16.936;2023-02-28T01:31:11;-2.40;99.90
53904;DHT22;39812;52.430;16.936;2023-02-28T01:33:38;-2.50;99.90
53904;DHT22;39812;52.430;16.936;2023-02-28T01:36:13;-2.60;99.90
53904;DHT22;39812;52.430;16.936;2023-02-28T01:38:39;-2.70;99.90
53904;DHT22;39812;52.430;16.936;2023-02-28T01:41:05;-2.80;99.90
53904;DHT22;39812;52.430;16.936;2023-02-28T01:43:56;-2.80;99.90
53904;DHT22;39812;52.430;16.936;2023-02-28T01:46:23;-2.70;99.90
53904;DHT22;39812;52.430;16.936;2023-02-28T01:48:58;-2.80;99.90
53904;DHT22;39812;52.430;16.936;2023-02-28T01:51:41;-2.90;99.90
53904;DHT22;39812;52.430;16.936;2023-02-28T01:54:24;-2.90;99.90
53904;DHT22;39812;52.430;16.936;2023-02-28T01:57:10;-2.90;99.90
53904;DHT22;39812;52.430;16.936;2023-02-28T01:59:42;-2.80;99.90
53904;DHT22;39812;52.430;16.936;2023-02-28T02:02:13;-2.90;99.90
53904;DHT22;39812;52.430;16.936;2023-02-28T02:05:06;-3.00;99.90
53904;DHT22;39812;52.430;16.936;2023-02-28T02:07:36;-3.00;99.90
53904;DHT22;39812;52.430;16.936;2023-02-28T02:10:11;-3.00;99.90
53904;DHT22;39812;52.430;16.936;2023-02-28T02:17:53;-2.90;99.90
53904;DHT22;39812;52.430;16.936;2023-02-28T02:26:21;-2.90;99.90
53904;DHT22;39812;52.430;16.936;2023-02-28T02:29:13;-2.90;99.90
53904;DHT22;39812;52.430;16.936;2023-02-28T02:31:48;-3.00;99.90
53904;DHT22;39812;52.430;16.936;2023-02-28T02:39:48;-2.90;99.90
53904;DHT22;39812;52.430;16.936;2023-02-28T02:42:34;-2.80;99.90
53904;DHT22;39812;52.430;16.936;2023-02-28T02:45:07;-2.90;99.90
53904;DHT22;39812;52.430;16.936;2023-02-28T02:47:35;-2.90;99.90
53904;DHT22;39812;52.430;16.936;2023-02-28T02:50:05;-2.80;99.90
53904;DHT22;39812;52.430;16.936;2023-02-28T02:52:42;-2.80;99.90
53904;DHT22;39812;52.430;16.936;2023-02-28T02:55:10;-2.90;99.90
53904;DHT22;39812;52.430;16.936;2023-02-28T03:00:10;-3.00;99.90
53904;DHT22;39812;52.430;16.936;2023-02-28T03:02:37;-2.90;99.90
53904;DHT22;39812;52.430;16.936;2023-02-28T03:05:14;-2.90;99.90
53904;DHT22;39812;52.430;16.936;2023-02-28T03:07:41;-3.00;99.90
53904;DHT22;39812;52.430;16.936;2023-02-28T03:10:35;-3.10;99.90
53904;DHT22;39812;52.430;16.936;2023-02-28T03:24:34;-3.30;99.90
53904;DHT22;39812;52.430;16.936;2023-02-28T03:27:11;-3.20;99.90
53904;DHT22;39812;52.430;16.936;2023-02-28T03:29:47;-3.20;99.90
53904;DHT22;39812;52.430;16.936;2023-02-28T03:32:27;-3.10;99.90
53904;DHT22;39812;52.430;16.936;2023-02-28T03:35:15;-3.10;99.90
53904;DHT22;39812;52.430;16.936;2023-02-28T03:38:11;-3.30;99.90
53904;DHT22;39812;52.430;16.936;2023-02-28T03:40:36;-3.30;99.90
53904;DHT22;39812;52.430;16.936;2023-02-28T03:43:11;-3.20;99.90
53904;DHT22;39812;52.430;16.936;2023-02-28T03:45:39;-3.20;99.90
53904;DHT22;39812;52.430;16.936;2023-02-28T03:48:23;-3.30;99.90
53904;DHT22;39812;52.430;16.936;2023-02-28T03:50:54;-3.30;99.90
53904;DHT22;39812;52.430;16.936;2023-02-28T03:55:51;-3.30;99.90
53904;DHT22;39812;52.430;16.936;2023-02-28T04:00:50;-3.20;99.90
53904;DHT22;39812;52.430;16.936;2023-02-28T04:03:18;-3.20;99.90
53904;DHT22;39812;52.430;16.936;2023-02-28T04:05:50;-3.20;99.90
53904;DHT22;39812;52.430;16.936;2023-02-28T04:08:16;-3.10;99.90
53904;DHT22;39812;52.430;16.936;2023-02-28T04:10:46;-3.00;99.90
53904;DHT22;39812;52.430;16.936;2023-02-28T04:13:13;-3.10;99.90
53904;DHT22;39812;52.430;16.936;2023-02-28T04:15:39;-3.10;99.90
53904;DHT22;39812;52.430;16.936;2023-02-28T04:18:04;-3.10;99.90
53904;DHT22;39812;52.430;16.936;2023-02-28T04:20:31;-3.10;99.90
53904;DHT22;39812;52.430;16.936;2023-02-28T04:22:56;-3.20;99.90
53904;DHT22;39812;52.430;16.936;2023-02-28T04:25:22;-3.20;99.90
53904;DHT22;39812;52.430;16.936;2023-02-28T04:27:48;-3.10;99.90
53904;DHT22;39812;52.430;16.936;2023-02-28T04:30:13;-3.20;99.90
53904;DHT22;39812;52.430;16.936;2023-02-28T04:32:39;-3.10;99.90
53904;DHT22;39812;52.430;16.936;2023-02-28T04:35:05;-3.20;99.90
53904;DHT22;39812;52.430;16.936;2023-02-28T04:37:31;-3.20;99.90
53904;DHT22;39812;52.430;16.936;2023-02-28T04:40:00;-3.30;99.90
53904;DHT22;39812;52.430;16.936;2023-02-28T04:42:26;-3.40;99.90
53904;DHT22;39812;52.430;16.936;2023-02-28T04:44:52;-3.50;99.90
53904;DHT22;39812;52.430;16.936;2023-02-28T04:47:17;-3.50;99.90
53904;DHT22;39812;52.430;16.936;2023-02-28T04:49:43;-3.40;99.90
53904;DHT22;39812;52.430;16.936;2023-02-28T04:52:09;-3.30;99.90
53904;DHT22;39812;52.430;16.936;2023-02-28T04:54:35;-3.40;99.90
53904;DHT22;39812;52.430;16.936;2023-02-28T04:57:01;-3.60;99.90
53904;DHT22;39812;52.430;16.936;2023-02-28T04:59:27;-3.60;99.90
53904;DHT22;39812;52.430;16.936;2023-02-28T05:01:52;-3.70;99.90
53904;DHT22;39812;52.430;16.936;2023-02-28T05:04:18;-3.80;99.90
53904;DHT22;39812;52.430;16.936;2023-02-28T05:06:44;-3.80;99.90
53904;DHT22;39812;52.430;16.936;2023-02-28T05:09:10;-3.80;99.90
53904;DHT22;39812;52.430;16.936;2023-02-28T05:11:39;-3.70;99.90
53904;DHT22;39812;52.430;16.936;2023-02-28T05:14:12;-3.60;99.90
53904;DHT22;39812;52.430;16.936;2023-02-28T05:16:38;-3.60;99.90
53904;DHT22;39812;52.430;16.936;2023-02-28T05:19:04;-3.60;99.90
53904;DHT22;39812;52.430;16.936;2023-02-28T05:23:59;-3.60;99.90
53904;DHT22;39812;52.430;16.936;2023-02-28T05:26:26;-3.50;99.90
53904;DHT22;39812;52.430;16.936;2023-02-28T05:28:53;-3.60;99.90
53904;DHT22;39812;52.430;16.936;2023-02-28T05:31:18;-3.60;99.90
53904;DHT22;39812;52.430;16.936;2023-02-28T05:33:44;-3.60;99.90
53904;DHT22;39812;52.430;16.936;2023-02-28T05:36:10;-3.60;99.90
53904;DHT22;39812;52.430;16.936;2023-02-28T05:38:36;-3.50;99.90
53904;DHT22;39812;52.430;16.936;2023-02-28T05:41:05;-3.50;99.90
53904;DHT22;39812;52.430;16.936;2023-02-28T05:43:31;-3.70;99.90
53904;DHT22;39812;52.430;16.936;2023-02-28T05:45:57;-3.70;99.90
53904;DHT22;39812;52.430;16.936;2023-02-28T05:48:22;-3.70;99.90
53904;DHT22;39812;52.430;16.936;2023-02-28T05:50:48;-3.70;99.90
53904;DHT22;39812;52.430;16.936;2023-02-28T05:53:14;-3.70;99.90
53904;DHT22;39812;52.430;16.936;2023-02-28T05:55:39;-3.50;99.90
53904;DHT22;39812;52.430;16.936;2023-02-28T05:58:06;-3.60;99.90
53904;DHT22;39812;52.430;16.936;2023-02-28T06:00:32;-3.60;99.90
53904;DHT22;39812;52.430;16.936;2023-02-28T06:02:57;-3.60;99.90
53904;DHT22;39812;52.430;16.936;2023-02-28T06:05:27;-3.50;99.90
53904;DHT22;39812;52.430;16.936;2023-02-28T06:07:53;-3.50;99.90
53904;DHT22;39812;52.430;16.936;2023-02-28T06:10:19;-3.50;99.90
53904;DHT22;39812;52.430;16.936;2023-02-28T06:12:45;-3.50;99.90
53904;DHT22;39812;52.430;16.936;2023-02-28T06:15:14;-3.40;99.90
53904;DHT22;39812;52.430;16.936;2023-02-28T06:17:43;-3.50;99.90
53904;DHT22;39812;52.430;16.936;2023-02-28T06:20:11;-3.40;99.90
53904;DHT22;39812;52.430;16.936;2023-02-28T06:22:38;-3.30;99.90
53904;DHT22;39812;52.430;16.936;2023-02-28T06:25:05;-3.20;99.90
53904;DHT22;39812;52.430;16.936;2023-02-28T06:27:32;-3.30;99.90
53904;DHT22;39812;52.430;16.936;2023-02-28T06:29:57;-3.40;99.90
53904;DHT22;39812;52.430;16.936;2023-02-28T06:32:23;-3.20;99.90
53904;DHT22;39812;52.430;16.936;2023-02-28T06:34:49;-3.10;99.90
53904;DHT22;39812;52.430;16.936;2023-02-28T06:37:16;-3.00;99.90
53904;DHT22;39812;52.430;16.936;2023-02-28T06:39:42;-3.00;99.90
53904;DHT22;39812;52.430;16.936;2023-02-28T06:42:08;-2.80;99.90
53904;DHT22;39812;52.430;16.936;2023-02-28T06:44:34;-2.70;99.90
53904;DHT22;39812;52.430;16.936;2023-02-28T06:47:04;-2.70;99.90
53904;DHT22;39812;52.430;16.936;2023-02-28T06:49:31;-2.60;99.90
53904;DHT22;39812;52.430;16.936;2023-02-28T06:51:57;-2.60;99.90
53904;DHT22;39812;52.430;16.936;2023-02-28T06:54:23;-2.50;99.90
53904;DHT22;39812;52.430;16.936;2023-02-28T06:56:49;-2.40;99.90
53904;DHT22;39812;52.430;16.936;2023-02-28T06:59:15;-2.40;99.90
53904;DHT22;39812;52.430;16.936;2023-02-28T07:01:40;-2.30;99.90
53904;DHT22;39812;52.430;16.936;2023-02-28T07:04:06;-2.20;99.90
53904;DHT22;39812;52.430;16.936;2023-02-28T07:06:32;-2.10;99.90
53904;DHT22;39812;52.430;16.936;2023-02-28T07:08:58;-1.90;99.90
53904;DHT22;39812;52.430;16.936;2023-02-28T07:11:26;-1.90;99.90
53904;DHT22;39812;52.430;16.936;2023-02-28T07:13:55;-1.70;99.90
53904;DHT22;39812;52.430;16.936;2023-02-28T07:16:22;-1.60;99.90
53904;DHT22;39812;52.430;16.936;2023-02-28T07:18:48;-1.50;99.90
53904;DHT22;39812;52.430;16.936;2023-02-28T07:21:14;-1.40;99.90
53904;DHT22;39812;52.430;16.936;2023-02-28T07:23:40;-1.30;99.90
53904;DHT22;39812;52.430;16.936;2023-02-28T07:26:10;-1.10;99.90
53904;DHT22;39812;52.430;16.936;2023-02-28T07:28:36;-1.00;99.90
53904;DHT22;39812;52.430;16.936;2023-02-28T07:31:06;-1.00;99.90
53904;DHT22;39812;52.430;16.936;2023-02-28T07:33:33;-1.00;99.90
53904;DHT22;39812;52.430;16.936;2023-02-28T07:36:08;-0.90;99.90
53904;DHT22;39812;52.430;16.936;2023-02-28T07:38:34;-0.90;99.90
53904;DHT22;39812;52.430;16.936;2023-02-28T07:41:01;-0.80;99.90
53904;DHT22;39812;52.430;16.936;2023-02-28T07:43:30;-0.70;99.90
53904;DHT22;39812;52.430;16.936;2023-02-28T07:46:00;-0.60;99.90
53904;DHT22;39812;52.430;16.936;2023-02-28T07:48:26;-0.60;99.90
53904;DHT22;39812;52.430;16.936;2023-02-28T07:50:55;-0.50;99.90
53904;DHT22;39812;52.430;16.936;2023-02-28T07:53:21;-0.40;99.90
53904;DHT22;39812;52.430;16.936;2023-02-28T07:55:48;-0.40;99.90
53904;DHT22;39812;52.430;16.936;2023-02-28T07:58:13;-0.50;99.90
53904;DHT22;39812;52.430;16.936;2023-02-28T08:00:39;-0.30;99.90
53904;DHT22;39812;52.430;16.936;2023-02-28T08:03:04;-0.30;99.90
53904;DHT22;39812;52.430;16.936;2023-02-28T08:05:30;-0.10;99.90
53904;DHT22;39812;52.430;16.936;2023-02-28T08:07:56;0.00;99.90
53904;DHT22;39812;52.430;16.936;2023-02-28T08:10:22;0.20;99.90
53904;DHT22;39812;52.430;16.936;2023-02-28T08:12:47;0.40;99.90
53904;DHT22;39812;52.430;16.936;2023-02-28T08:15:13;0.40;99.90
53904;DHT22;39812;52.430;16.936;2023-02-28T08:17:39;0.30;99.90
53904;DHT22;39812;52.430;16.936;2023-02-28T08:20:05;0.30;99.90
53904;DHT22;39812;52.430;16.936;2023-02-28T08:22:31;0.30;99.90
53904;DHT22;39812;52.430;16.936;2023-02-28T08:24:57;0.40;99.90
53904;DHT22;39812;52.430;16.936;2023-02-28T08:27:22;0.40;99.90
53904;DHT22;39812;52.430;16.936;2023-02-28T08:29:48;0.40;99.90
53904;DHT22;39812;52.430;16.936;2023-02-28T08:32:13;0.60;99.90
53904;DHT22;39812;52.430;16.936;2023-02-28T08:34:40;0.60;99.90
53904;DHT22;39812;52.430;16.936;2023-02-28T08:37:06;0.70;99.90
53904;DHT22;39812;52.430;16.936;2023-02-28T08:39:34;0.90;99.90
53904;DHT22;39812;52.430;16.936;2023-02-28T08:42:02;1.10;99.90
53904;DHT22;39812;52.430;16.936;2023-02-28T08:44:28;1.10;99.90
53904;DHT22;39812;52.430;16.936;2023-02-28T08:46:53;1.10;99.90
53904;DHT22;39812;52.430;16.936;2023-02-28T08:49:19;1.30;99.90
53904;DHT22;39812;52.430;16.936;2023-02-28T08:51:45;1.30;99.90
53904;DHT22;39812;52.430;16.936;2023-02-28T08:54:10;1.30;99.90
53904;DHT22;39812;52.430;16.936;2023-02-28T08:56:38;1.40;99.90
53904;DHT22;39812;52.430;16.936;2023-02-28T08:59:04;1.60;99.90
53904;DHT22;39812;52.430;16.936;2023-02-28T09:01:30;1.60;99.90
53904;DHT22;39812;52.430;16.936;2023-02-28T09:03:57;1.60;99.90
53904;DHT22;39812;52.430;16.936;2023-02-28T09:06:24;1.70;99.90
53904;DHT22;39812;52.430;16.936;2023-02-28T09:08:51;1.70;99.90
53904;DHT22;39812;52.430;16.936;2023-02-28T09:11:17;1.90;99.90
53904;DHT22;39812;52.430;16.936;2023-02-28T09:13:45;2.00;99.90
53904;DHT22;39812;52.430;16.936;2023-02-28T09:16:14;2.10;99.90
53904;DHT22;39812;52.430;16.936;2023-02-28T09:18:41;2.20;99.90
53904;DHT22;39812;52.430;16.936;2023-02-28T09:21:09;2.20;99.90
53904;DHT22;39812;52.430;16.936;2023-02-28T09:23:35;2.10;99.90
53904;DHT22;39812;52.430;16.936;2023-02-28T09:26:03;2.00;99.90
53904;DHT22;39812;52.430;16.936;2023-02-28T09:28:29;2.20;99.90
53904;DHT22;39812;52.430;16.936;2023-02-28T09:30:55;2.20;99.90
53904;DHT22;39812;52.430;16.936;2023-02-28T09:33:22;2.30;99.90
53904;DHT22;39812;52.430;16.936;2023-02-28T09:35:57;2.40;99.90
53904;DHT22;39812;52.430;16.936;2023-02-28T09:38:23;2.40;99.90
53904;DHT22;39812;52.430;16.936;2023-02-28T09:40:50;2.40;99.90
53904;DHT22;39812;52.430;16.936;2023-02-28T09:43:18;2.50;99.90
53904;DHT22;39812;52.430;16.936;2023-02-28T09:48:47;2.60;99.90
53904;DHT22;39812;52.430;16.936;2023-02-28T09:53:42;2.50;99.90
53904;DHT22;39812;52.430;16.936;2023-02-28T09:56:33;2.70;99.90
53904;DHT22;39812;52.430;16.936;2023-02-28T09:59:02;2.90;99.90
53904;DHT22;39812;52.430;16.936;2023-02-28T10:07:37;3.30;99.90
53904;DHT22;39812;52.430;16.936;2023-02-28T10:11:06;3.50;99.90
53904;DHT22;39812;52.430;16.936;2023-02-28T10:13:31;3.50;99.90
53904;DHT22;39812;52.430;16.936;2023-02-28T10:15:56;3.50;99.90
53904;DHT22;39812;52.430;16.936;2023-02-28T10:21:21;3.80;98.90
53904;DHT22;39812;52.430;16.936;2023-02-28T10:23:48;4.00;98.10
53904;DHT22;39812;52.430;16.936;2023-02-28T10:26:17;4.10;96.70
53904;DHT22;39812;52.430;16.936;2023-02-28T10:28:43;4.20;96.90
53904;DHT22;39812;52.430;16.936;2023-02-28T10:31:15;4.10;96.90
53904;DHT22;39812;52.430;16.936;2023-02-28T10:33:43;4.00;97.00
53904;DHT22;39812;52.430;16.936;2023-02-28T10:36:17;4.00;96.80
53904;DHT22;39812;52.430;16.936;2023-02-28T10:38:44;4.10;96.50
53904;DHT22;39812;52.430;16.936;2023-02-28T10:41:14;4.20;96.10
53904;DHT22;39812;52.430;16.936;2023-02-28T10:43:42;4.20;95.60
53904;DHT22;39812;52.430;16.936;2023-02-28T10:48:38;4.30;94.80
53904;DHT22;39812;52.430;16.936;2023-02-28T10:51:07;4.20;95.10
53904;DHT22;39812;52.430;16.936;2023-02-28T10:58:59;4.40;94.50
53904;DHT22;39812;52.430;16.936;2023-02-28T11:03:57;4.30;93.60
53904;DHT22;39812;52.430;16.936;2023-02-28T11:06:30;4.40;93.90
53904;DHT22;39812;52.430;16.936;2023-02-28T11:08:58;4.60;93.30
53904;DHT22;39812;52.430;16.936;2023-02-28T11:11:26;4.70;92.90
53904;DHT22;39812;52.430;16.936;2023-02-28T11:13:55;4.90;93.10
53904;DHT22;39812;52.430;16.936;2023-02-28T11:16:31;4.90;91.90
53904;DHT22;39812;52.430;16.936;2023-02-28T11:18:58;4.90;91.30
53904;DHT22;39812;52.430;16.936;2023-02-28T11:24:42;4.80;91.40
53904;DHT22;39812;52.430;16.936;2023-02-28T11:26:44;4.90;90.90
53904;DHT22;39812;52.430;16.936;2023-02-28T11:29:16;5.10;90.90
53904;DHT22;39812;52.430;16.936;2023-02-28T11:31:42;5.20;90.20
53904;DHT22;39812;52.430;16.936;2023-02-28T11:34:25;5.50;89.60
53904;DHT22;39812;52.430;16.936;2023-02-28T11:36:55;5.70;88.50
53904;DHT22;39812;52.430;16.936;2023-02-28T11:39:23;5.90;88.20
53904;DHT22;39812;52.430;16.936;2023-02-28T11:41:56;6.00;87.80
53904;DHT22;39812;52.430;16.936;2023-02-28T11:44:41;6.20;87.00
53904;DHT22;39812;52.430;16.936;2023-02-28T11:53:02;7.00;82.30
53904;DHT22;39812;52.430;16.936;2023-02-28T11:55:39;7.50;80.60
53904;DHT22;39812;52.430;16.936;2023-02-28T11:58:27;8.50;76.90
53904;DHT22;39812;52.430;16.936;2023-02-28T12:01:18;10.00;72.80
53904;DHT22;39812;52.430;16.936;2023-02-28T12:06:44;12.40;61.40
53904;DHT22;39812;52.430;16.936;2023-02-28T12:11:56;15.90;51.60
53904;DHT22;39812;52.430;16.936;2023-02-28T12:27:46;20.90;37.70
53904;DHT22;39812;52.430;16.936;2023-02-28T12:30:22;22.20;36.60
53904;DHT22;39812;52.430;16.936;2023-02-28T12:33:11;22.00;35.40
53904;DHT22;39812;52.430;16.936;2023-02-28T12:40:55;22.10;35.60
53904;DHT22;39812;52.430;16.936;2023-02-28T12:43:27;21.90;35.20
53904;DHT22;39812;52.430;16.936;2023-02-28T12:46:00;22.70;35.40
53904;DHT22;39812;52.430;16.936;2023-02-28T12:48:33;23.40;34.30
53904;DHT22;39812;52.430;16.936;2023-02-28T12:51:03;23.30;34.20
53904;DHT22;39812;52.430;16.936;2023-02-28T12:58:35;23.30;33.40
53904;DHT22;39812;52.430;16.936;2023-02-28T13:01:25;23.80;33.70
53904;DHT22;39812;52.430;16.936;2023-02-28T13:09:52;26.00;32.10
53904;DHT22;39812;52.430;16.936;2023-02-28T13:12:19;26.20;31.50
53904;DHT22;39812;52.430;16.936;2023-02-28T13:14:46;25.70;31.20
53904;DHT22;39812;52.430;16.936;2023-02-28T13:17:16;26.10;31.60
53904;DHT22;39812;52.430;16.936;2023-02-28T13:24:53;27.00;30.90
53904;DHT22;39812;52.430;16.936;2023-02-28T13:27:37;25.70;31.00
53904;DHT22;39812;52.430;16.936;2023-02-28T13:35:46;25.90;30.40
53904;DHT22;39812;52.430;16.936;2023-02-28T13:38:33;26.10;30.90
53904;DHT22;39812;52.430;16.936;2023-02-28T13:46:25;25.60;30.80
53904;DHT22;39812;52.430;16.936;2023-02-28T13:48:51;26.80;30.90
53904;DHT22;39812;52.430;16.936;2023-02-28T13:51:45;27.10;30.60
53904;DHT22;39812;52.430;16.936;2023-02-28T14:05:19;26.30;30.50
53904;DHT22;39812;52.430;16.936;2023-02-28T14:08:14;25.80;30.60
53904;DHT22;39812;52.430;16.936;2023-02-28T14:10:45;26.30;30.70
53904;DHT22;39812;52.430;16.936;2023-02-28T14:13:58;27.10;30.40
53904;DHT22;39812;52.430;16.936;2023-02-28T14:16:03;26.70;30.00
53904;DHT22;39812;52.430;16.936;2023-02-28T14:18:34;26.60;30.10
53904;DHT22;39812;52.430;16.936;2023-02-28T14:26:33;26.40;31.00
53904;DHT22;39812;52.430;16.936;2023-02-28T14:31:35;26.00;31.10
53904;DHT22;39812;52.430;16.936;2023-02-28T14:34:28;25.90;31.30
53904;DHT22;39812;52.430;16.936;2023-02-28T14:36:58;25.70;31.30
53904;DHT22;39812;52.430;16.936;2023-02-28T14:39:27;25.90;31.10
53904;DHT22;39812;52.430;16.936;2023-02-28T14:41:56;25.40;31.40
53904;DHT22;39812;52.430;16.936;2023-02-28T14:44:27;25.50;31.60
53904;DHT22;39812;52.430;16.936;2023-02-28T14:46:59;25.10;31.60
53904;DHT22;39812;52.430;16.936;2023-02-28T14:49:36;25.00;31.70
53904;DHT22;39812;52.430;16.936;2023-02-28T14:52:20;24.30;31.90
53904;DHT22;39812;52.430;16.936;2023-02-28T14:54:52;23.70;32.50
53904;DHT22;39812;52.430;16.936;2023-02-28T14:57:33;23.70;32.70
53904;DHT22;39812;52.430;16.936;2023-02-28T15:00:21;24.00;32.70
53904;DHT22;39812;52.430;16.936;2023-02-28T15:02:47;24.00;32.30
53904;DHT22;39812;52.430;16.936;2023-02-28T15:07:41;23.70;32.50
53904;DHT22;39812;52.430;16.936;2023-02-28T15:10:26;23.60;32.70
53904;DHT22;39812;52.430;16.936;2023-02-28T15:12:56;23.00;32.50
53904;DHT22;39812;52.430;16.936;2023-02-28T15:18:06;22.40;33.50
53904;DHT22;39812;52.430;16.936;2023-02-28T15:20:33;22.10;33.70
53904;DHT22;39812;52.430;16.936;2023-02-28T15:23:01;22.20;33.70
53904;DHT22;39812;52.430;16.936;2023-02-28T15:25:27;21.40;34.40
53904;DHT22;39812;52.430;16.936;2023-02-28T15:27:55;21.10;34.60
53904;DHT22;39812;52.430;16.936;2023-02-28T15:30:27;21.10;34.80
53904;DHT22;39812;52.430;16.936;2023-02-28T15:33:25;20.70;34.90
53904;DHT22;39812;52.430;16.936;2023-02-28T15:35:52;20.60;35.30
53904;DHT22;39812;52.430;16.936;2023-02-28T15:38:28;20.10;35.60
53904;DHT22;39812;52.430;16.936;2023-02-28T15:40:56;19.70;36.20
53904;DHT22;39812;52.430;16.936;2023-02-28T15:43:30;19.50;36.40
53904;DHT22;39812;52.430;16.936;2023-02-28T15:48:31;18.50;37.40
53904;DHT22;39812;52.430;16.936;2023-02-28T15:51:04;17.80;38.00
53904;DHT22;39812;52.430;16.936;2023-02-28T15:53:49;17.20;39.00
53904;DHT22;39812;52.430;16.936;2023-02-28T15:56:30;16.70;39.80
53904;DHT22;39812;52.430;16.936;2023-02-28T15:59:05;16.10;40.30
53904;DHT22;39812;52.430;16.936;2023-02-28T16:01:36;15.20;41.00
53904;DHT22;39812;52.430;16.936;2023-02-28T16:04:22;14.20;42.40
53904;DHT22;39812;52.430;16.936;2023-02-28T16:09:23;12.90;44.80
53904;DHT22;39812;52.430;16.936;2023-02-28T16:11:51;12.40;45.60
53904;DHT22;39812;52.430;16.936;2023-02-28T16:14:28;11.50;47.00
53904;DHT22;39812;52.430;16.936;2023-02-28T16:17:04;10.70;48.00
53904;DHT22;39812;52.430;16.936;2023-02-28T16:19:30;9.90;49.80
53904;DHT22;39812;52.430;16.936;2023-02-28T16:21:57;9.20;51.20
53904;DHT22;39812;52.430;16.936;2023-02-28T16:24:22;8.60;52.00
53904;DHT22;39812;52.430;16.936;2023-02-28T16:26:49;7.80;53.30
53904;DHT22;39812;52.430;16.936;2023-02-28T16:29:31;7.10;54.60
53904;DHT22;39812;52.430;16.936;2023-02-28T16:31:57;6.60;55.90
53904;DHT22;39812;52.430;16.936;2023-02-28T16:34:24;5.90;57.20
53904;DHT22;39812;52.430;16.936;2023-02-28T16:36:50;5.20;59.50
53904;DHT22;39812;52.430;16.936;2023-02-28T16:39:16;4.50;61.60
53904;DHT22;39812;52.430;16.936;2023-02-28T16:41:44;4.00;63.10
53904;DHT22;39812;52.430;16.936;2023-02-28T16:44:14;3.60;64.40
53904;DHT22;39812;52.430;16.936;2023-02-28T16:46:46;3.20;65.90
53904;DHT22;39812;52.430;16.936;2023-02-28T16:49:12;2.80;67.60
53904;DHT22;39812;52.430;16.936;2023-02-28T16:51:38;2.50;68.80
53904;DHT22;39812;52.430;16.936;2023-02-28T16:54:04;2.30;70.10
53904;DHT22;39812;52.430;16.936;2023-02-28T16:56:29;2.10;71.30
53904;DHT22;39812;52.430;16.936;2023-02-28T16:59:00;1.80;72.40
53904;DHT22;39812;52.430;16.936;2023-02-28T17:01:27;1.70;74.20
53904;DHT22;39812;52.430;16.936;2023-02-28T17:03:54;1.50;75.30
53904;DHT22;39812;52.430;16.936;2023-02-28T17:06:22;1.40;76.90
53904;DHT22;39812;52.430;16.936;2023-02-28T17:08:50;1.20;78.20
53904;DHT22;39812;52.430;16.936;2023-02-28T17:11:16;1.10;79.70
53904;DHT22;39812;52.430;16.936;2023-02-28T17:13:42;1.00;81.40
53904;DHT22;39812;52.430;16.936;2023-02-28T17:18:42;0.90;84.10
53904;DHT22;39812;52.430;16.936;2023-02-28T17:21:14;0.80;86.10
53904;DHT22;39812;52.430;16.936;2023-02-28T17:23:39;0.60;88.30
53904;DHT22;39812;52.430;16.936;2023-02-28T17:26:05;0.60;90.60
53904;DHT22;39812;52.430;16.936;2023-02-28T17:28:32;0.50;91.60
53904;DHT22;39812;52.430;16.936;2023-02-28T17:30:58;0.40;92.70
53904;DHT22;39812;52.430;16.936;2023-02-28T17:33:23;0.40;93.30
53904;DHT22;39812;52.430;16.936;2023-02-28T17:35:49;0.40;93.90
53904;DHT22;39812;52.430;16.936;2023-02-28T17:38:18;0.30;94.30
53904;DHT22;39812;52.430;16.936;2023-02-28T17:40:44;0.30;95.20
53904;DHT22;39812;52.430;16.936;2023-02-28T17:43:10;0.20;96.00
53904;DHT22;39812;52.430;16.936;2023-02-28T17:45:36;0.20;97.10
53904;DHT22;39812;52.430;16.936;2023-02-28T17:48:01;0.20;97.70
53904;DHT22;39812;52.430;16.936;2023-02-28T17:50:27;0.20;98.10
53904;DHT22;39812;52.430;16.936;2023-02-28T17:52:53;0.10;98.60
53904;DHT22;39812;52.430;16.936;2023-02-28T17:55:18;0.20;99.30
53904;DHT22;39812;52.430;16.936;2023-02-28T17:57:44;0.10;99.70
53904;DHT22;39812;52.430;16.936;2023-02-28T18:00:15;0.10;99.90
53904;DHT22;39812;52.430;16.936;2023-02-28T18:02:43;0.00;99.90
53904;DHT22;39812;52.430;16.936;2023-02-28T18:05:09;0.00;99.90
53904;DHT22;39812;52.430;16.936;2023-02-28T18:07:37;-0.10;99.90
53904;DHT22;39812;52.430;16.936;2023-02-28T18:10:04;-0.20;99.90